createdAt,value
2022-11-08T00:00:40.468Z,5.50
2022-11-08T00:03:08.504Z,5.49
2022-11-08T00:05:53.580Z,5.46
2022-11-08T00:08:40.168Z,5.42
2022-11-08T00:11:25.431Z,5.39
2022-11-08T00:13:59.457Z,5.34
2022-11-08T00:16:27.299Z,5.29
2022-11-08T00:18:55.055Z,5.30
2022-11-08T00:21:22.750Z,5.29
2022-11-08T00:23:51.830Z,5.28
2022-11-08T00:26:19.576Z,5.28
2022-11-08T00:28:47.263Z,5.28
2022-11-08T00:31:14.967Z,5.31
2022-11-08T00:33:42.667Z,5.31
2022-11-08T00:36:10.959Z,5.26
2022-11-08T00:38:42.613Z,5.16
2022-11-08T00:41:11.769Z,5.11
2022-11-08T00:43:39.549Z,5.10
2022-11-08T00:46:07.339Z,5.07
2022-11-08T00:48:35.093Z,5.10
2022-11-08T00:51:03.567Z,5.11
2022-11-08T00:53:31.257Z,5.08
2022-11-08T00:56:02.484Z,5.06
2022-11-08T00:58:31.602Z,5.01
2022-11-08T01:00:59.585Z,5.00
2022-11-08T01:03:27.861Z,4.98
2022-11-08T01:05:56.024Z,4.99
2022-11-08T01:08:24.346Z,4.97
2022-11-08T01:10:52.939Z,4.96
2022-11-08T01:13:21.008Z,4.97
2022-11-08T01:15:50.148Z,4.98
2022-11-08T01:18:18.639Z,4.93
2022-11-08T01:20:48.433Z,4.87
2022-11-08T01:23:16.843Z,4.78
2022-11-08T01:25:45.713Z,4.67
2022-11-08T01:28:14.279Z,4.59
2022-11-08T01:30:43.718Z,4.58
2022-11-08T01:33:13.544Z,4.55
2022-11-08T01:35:41.927Z,4.56
2022-11-08T01:38:11.490Z,4.60
2022-11-08T01:40:44.283Z,4.59
2022-11-08T01:43:34.629Z,4.59
2022-11-08T01:46:31.616Z,4.55
2022-11-08T01:49:14.623Z,4.54
2022-11-08T01:51:44.383Z,4.54
2022-11-08T01:54:15.726Z,4.52
2022-11-08T01:56:43.681Z,4.49
2022-11-08T01:59:11.717Z,4.45
2022-11-08T02:01:39.675Z,4.42
2022-11-08T02:04:08.943Z,4.40
2022-11-08T02:06:39.218Z,4.38
2022-11-08T02:09:09.871Z,4.34
2022-11-08T02:11:37.861Z,4.34
2022-11-08T02:14:05.659Z,4.26
2022-11-08T02:16:33.301Z,4.30
2022-11-08T02:19:01.016Z,4.29
2022-11-08T02:21:36.056Z,4.27
2022-11-08T02:24:08.831Z,4.26
2022-11-08T02:26:37.467Z,4.28
2022-11-08T02:29:23.511Z,4.29
2022-11-08T02:31:51.241Z,4.28
2022-11-08T02:34:19.343Z,4.27
2022-11-08T02:36:49.221Z,4.23
2022-11-08T02:39:18.263Z,4.20
2022-11-08T02:41:45.965Z,4.16
2022-11-08T02:44:13.674Z,4.16
2022-11-08T02:46:41.505Z,4.13
2022-11-08T02:49:09.237Z,4.11
2022-11-08T02:51:36.913Z,4.10
2022-11-08T02:54:04.702Z,4.08
2022-11-08T02:56:33.821Z,4.09
2022-11-08T02:59:01.495Z,4.06
2022-11-08T03:01:29.345Z,4.05
2022-11-08T03:03:57.073Z,4.05
2022-11-08T03:06:24.730Z,4.02
2022-11-08T03:08:52.387Z,4.00
2022-11-08T03:11:20.047Z,3.96
2022-11-08T03:13:49.113Z,3.95
2022-11-08T03:16:16.997Z,3.85
2022-11-08T03:18:45.023Z,3.87
2022-11-08T03:21:12.921Z,3.89
2022-11-08T03:23:40.716Z,3.88
2022-11-08T03:26:08.373Z,3.88
2022-11-08T03:28:36.026Z,3.86
2022-11-08T03:31:05.163Z,3.88
2022-11-08T03:33:32.797Z,3.84
2022-11-08T03:36:00.462Z,3.83
2022-11-08T03:38:28.132Z,3.81
2022-11-08T03:40:55.940Z,3.81
2022-11-08T03:43:23.585Z,3.80
2022-11-08T03:45:51.229Z,3.80
2022-11-08T03:48:20.710Z,3.70
2022-11-08T03:50:48.552Z,3.70
2022-11-08T03:53:16.187Z,3.73
2022-11-08T03:55:43.844Z,3.74
2022-11-08T03:58:12.072Z,3.79
2022-11-08T04:00:39.733Z,3.84
2022-11-08T04:03:07.540Z,3.82
2022-11-08T04:05:36.558Z,3.85
2022-11-08T04:08:05.950Z,3.81
2022-11-08T04:10:33.631Z,3.76
2022-11-08T04:13:19.480Z,3.74
2022-11-08T04:15:48.081Z,3.70
2022-11-08T04:18:33.392Z,3.62
2022-11-08T04:21:21.589Z,3.56
2022-11-08T04:23:50.104Z,3.53
2022-11-08T04:26:18.013Z,3.55
2022-11-08T04:28:46.258Z,3.51
2022-11-08T04:31:15.110Z,3.52
2022-11-08T04:33:42.912Z,3.56
2022-11-08T04:36:12.898Z,3.55
2022-11-08T04:38:40.589Z,3.54
2022-11-08T04:41:10.365Z,3.56
2022-11-08T04:43:38.112Z,3.55
2022-11-08T04:46:07.530Z,3.53
2022-11-08T04:48:35.707Z,3.46
2022-11-08T04:51:05.006Z,3.46
2022-11-08T04:53:34.372Z,3.44
2022-11-08T04:56:03.613Z,3.38
2022-11-08T04:58:35.190Z,3.32
2022-11-08T05:01:03.774Z,3.28
2022-11-08T05:03:31.639Z,3.25
2022-11-08T05:06:02.335Z,3.25
2022-11-08T05:08:29.988Z,3.24
2022-11-08T05:11:03.025Z,3.20
2022-11-08T05:13:30.687Z,3.19
2022-11-08T05:16:01.363Z,3.16
2022-11-08T05:18:29.161Z,3.17
2022-11-08T05:21:19.958Z,3.20
2022-11-08T05:23:49.280Z,3.23
2022-11-08T05:26:19.930Z,3.25
2022-11-08T05:28:47.727Z,3.17
2022-11-08T05:31:21.503Z,3.14
2022-11-08T05:33:49.587Z,3.18
2022-11-08T05:36:17.898Z,3.22
2022-11-08T05:38:45.595Z,3.27
2022-11-08T05:41:15.742Z,3.28
2022-11-08T05:43:46.981Z,3.32
2022-11-08T05:46:15.053Z,3.32
2022-11-08T05:48:43.691Z,3.30
2022-11-08T05:51:12.109Z,3.30
2022-11-08T05:53:39.843Z,3.32
2022-11-08T05:56:08.394Z,3.32
2022-11-08T05:58:36.875Z,3.28
2022-11-08T06:01:07.638Z,3.28
2022-11-08T06:03:35.802Z,3.25
2022-11-08T06:06:04.128Z,3.26
2022-11-08T06:08:31.843Z,3.28
2022-11-08T06:11:03.606Z,3.30
2022-11-08T06:13:31.750Z,3.31
2022-11-08T06:16:01.125Z,3.26
2022-11-08T06:18:30.602Z,3.26
2022-11-08T06:20:59.051Z,3.25
2022-11-08T06:23:26.953Z,3.23
2022-11-08T06:25:54.844Z,3.21
2022-11-08T06:28:22.712Z,3.21
2022-11-08T06:30:50.461Z,3.24
2022-11-08T06:33:18.729Z,3.29
2022-11-08T06:35:48.028Z,3.32
2022-11-08T06:38:15.667Z,3.38
2022-11-08T06:40:43.627Z,3.38
2022-11-08T06:43:16.356Z,3.40
2022-11-08T06:45:45.920Z,3.43
2022-11-08T06:48:13.636Z,3.49
2022-11-08T06:50:43.156Z,3.53
2022-11-08T06:53:14.554Z,3.57
2022-11-08T06:55:42.416Z,3.62
2022-11-08T06:58:11.502Z,3.66
2022-11-08T07:00:39.335Z,3.73
2022-11-08T07:03:07.148Z,3.78
2022-11-08T07:05:36.545Z,3.84
2022-11-08T07:08:04.842Z,3.90
2022-11-08T07:10:34.962Z,3.98
2022-11-08T07:13:04.155Z,4.06
2022-11-08T07:15:32.863Z,4.16
2022-11-08T07:18:01.764Z,4.23
2022-11-08T07:20:29.651Z,4.35
2022-11-08T07:22:57.650Z,4.43
2022-11-08T07:25:25.713Z,4.50
2022-11-08T07:27:57.146Z,4.57
2022-11-08T07:30:25.184Z,4.66
2022-11-08T07:32:53.123Z,4.71
2022-11-08T07:35:20.852Z,4.77
2022-11-08T07:37:48.664Z,4.80
2022-11-08T07:40:16.809Z,4.82
2022-11-08T07:43:10.011Z,4.89
2022-11-08T07:45:33.626Z,4.94
2022-11-08T07:48:05.525Z,5.00
2022-11-08T07:50:37.468Z,5.08
2022-11-08T07:53:05.246Z,5.09
2022-11-08T07:55:32.873Z,5.14
2022-11-08T07:58:02.341Z,5.19
2022-11-08T08:00:30.465Z,5.23
2022-11-08T08:03:00.083Z,5.28
2022-11-08T08:05:28.223Z,5.38
2022-11-08T08:07:57.874Z,5.53
2022-11-08T08:10:26.120Z,5.70
2022-11-08T08:12:53.918Z,5.86
2022-11-08T08:15:21.867Z,5.99
2022-11-08T08:17:49.541Z,6.11
2022-11-08T08:20:19.262Z,6.30
2022-11-08T08:22:47.472Z,6.44
2022-11-08T08:25:15.828Z,6.59
2022-11-08T08:27:47.651Z,6.77
2022-11-08T08:30:15.945Z,6.88
2022-11-08T08:32:43.668Z,6.97
2022-11-08T08:35:11.615Z,6.97
2022-11-08T08:37:41.163Z,7.02
2022-11-08T08:40:11.171Z,7.00
2022-11-08T08:42:38.844Z,7.09
2022-11-08T08:45:12.072Z,7.17
2022-11-08T08:47:42.230Z,7.29
2022-11-08T08:50:10.248Z,7.40
2022-11-08T08:52:37.883Z,7.40
2022-11-08T08:55:07.936Z,7.39
2022-11-08T08:57:36.690Z,7.33
2022-11-08T09:02:53.407Z,7.41
2022-11-08T09:05:21.116Z,7.49
2022-11-08T09:07:48.929Z,7.60
2022-11-08T09:10:17.960Z,7.72
2022-11-08T09:12:45.606Z,7.85
2022-11-08T09:15:13.265Z,7.97
2022-11-08T09:17:40.928Z,8.12
2022-11-08T09:20:09.643Z,8.33
2022-11-08T09:22:37.801Z,8.60
2022-11-08T09:25:06.338Z,8.85
2022-11-08T09:27:35.381Z,9.08
2022-11-08T09:30:03.298Z,9.30
2022-11-08T09:32:46.538Z,9.48
2022-11-08T09:35:18.771Z,9.62
2022-11-08T09:37:49.706Z,9.75
2022-11-08T09:40:18.680Z,9.96
2022-11-08T09:42:58.948Z,10.19
2022-11-08T09:45:29.513Z,10.36
2022-11-08T09:48:00.152Z,10.41
2022-11-08T09:50:35.222Z,10.45
2022-11-08T09:53:14.476Z,10.47
2022-11-08T09:55:45.836Z,10.50
2022-11-08T09:58:25.280Z,10.48
2022-11-08T10:00:53.571Z,10.51
2022-11-08T10:03:24.220Z,10.50
2022-11-08T10:06:00.946Z,10.42
2022-11-08T10:08:33.128Z,10.36
2022-11-08T10:11:08.420Z,10.33
2022-11-08T10:13:47.664Z,10.28
2022-11-08T10:16:21.753Z,10.35
2022-11-08T10:19:00.869Z,10.40
2022-11-08T10:21:43.239Z,10.54
2022-11-08T10:24:12.245Z,10.65
2022-11-08T10:26:45.197Z,10.66
2022-11-08T10:29:21.494Z,10.51
2022-11-08T10:31:52.875Z,10.47
2022-11-08T10:34:24.938Z,10.64
2022-11-08T10:36:55.683Z,10.84
2022-11-08T10:39:26.367Z,10.94
2022-11-08T10:41:59.972Z,11.17
2022-11-08T10:44:29.713Z,11.46
2022-11-08T10:47:00.151Z,11.75
2022-11-08T10:49:29.197Z,12.03
2022-11-08T10:51:58.720Z,12.18
2022-11-08T10:54:47.922Z,12.32
2022-11-08T10:57:17.925Z,12.42
2022-11-08T10:59:47.095Z,12.55
2022-11-08T11:02:24.203Z,12.72
2022-11-08T11:04:53.112Z,12.97
2022-11-08T11:07:34.077Z,13.16
2022-11-08T11:10:21.557Z,13.38
2022-11-08T11:12:50.906Z,13.57
2022-11-08T11:15:20.012Z,13.60
2022-11-08T11:17:48.418Z,13.63
2022-11-08T11:20:24.088Z,13.60
2022-11-08T11:22:53.303Z,13.67
2022-11-08T11:25:22.797Z,13.72
2022-11-08T11:27:54.996Z,13.96
2022-11-08T11:30:25.512Z,14.19
2022-11-08T11:33:05.560Z,14.18
2022-11-08T11:35:40.020Z,14.21
2022-11-08T11:38:12.052Z,14.34
2022-11-08T11:40:42.249Z,14.33
2022-11-08T11:43:13.600Z,14.36
2022-11-08T11:45:46.652Z,14.52
2022-11-08T11:48:18.651Z,14.61
2022-11-08T11:50:46.649Z,14.66
2022-11-08T11:53:18.053Z,14.77
2022-11-08T11:56:20.246Z,14.78
2022-11-08T11:58:59.682Z,14.77
2022-11-08T12:01:38.566Z,14.92
2022-11-08T12:04:21.742Z,15.13
2022-11-08T12:06:53.301Z,15.09
2022-11-08T12:09:32.206Z,15.25
2022-11-08T12:12:10.152Z,15.30
2022-11-08T12:14:45.842Z,15.59
2022-11-08T12:17:36.032Z,15.92
2022-11-08T12:20:26.687Z,15.97
2022-11-08T12:23:04.781Z,16.17
2022-11-08T12:25:34.686Z,16.08
2022-11-08T12:28:06.143Z,16.07
2022-11-08T12:30:38.011Z,16.07
2022-11-08T12:33:18.198Z,16.11
2022-11-08T12:35:56.937Z,15.94
2022-11-08T12:38:29.912Z,15.78
2022-11-08T12:41:04.056Z,15.76
2022-11-08T12:43:42.004Z,15.75
2022-11-08T12:46:13.014Z,15.55
2022-11-08T12:49:02.058Z,15.50
2022-11-08T12:51:37.867Z,15.35
2022-11-08T12:54:28.103Z,15.45
2022-11-08T12:56:57.664Z,15.46
2022-11-08T12:59:29.058Z,15.43
2022-11-08T13:01:56.912Z,15.36
2022-11-08T13:04:34.286Z,15.51
2022-11-08T13:07:04.954Z,15.68
2022-11-08T13:09:39.227Z,15.86
2022-11-08T13:12:14.716Z,15.94
2022-11-08T13:14:42.595Z,16.06
2022-11-08T13:17:16.364Z,16.16
2022-11-08T13:20:04.732Z,16.30
2022-11-08T13:22:47.855Z,16.43
2022-11-08T13:25:36.484Z,16.38
2022-11-08T13:28:37.317Z,16.34
2022-11-08T13:31:16.638Z,16.21
2022-11-08T13:33:51.467Z,16.25
2022-11-08T13:36:30.176Z,16.25
2022-11-08T13:39:09.732Z,16.18
2022-11-08T13:42:04.102Z,16.04
2022-11-08T13:45:01.278Z,15.75
2022-11-08T13:47:55.275Z,15.55
2022-11-08T13:50:54.568Z,15.46
2022-11-08T13:53:58.609Z,15.35
2022-11-08T13:56:43.345Z,15.45
2022-11-08T13:59:50.728Z,15.59
2022-11-08T14:02:37.619Z,15.71
2022-11-08T14:05:40.771Z,15.73
2022-11-08T14:08:20.296Z,15.70
2022-11-08T14:11:25.733Z,15.65
2022-11-08T14:14:04.845Z,15.58
2022-11-08T14:16:38.746Z,15.32
2022-11-08T14:19:20.087Z,15.07
2022-11-08T14:21:50.833Z,14.85
2022-11-08T14:24:21.479Z,14.80
2022-11-08T14:26:50.604Z,14.77
2022-11-08T14:29:19.164Z,14.72
2022-11-08T14:31:47.430Z,14.72
2022-11-08T14:34:32.776Z,14.73
2022-11-08T14:37:01.616Z,14.80
2022-11-08T14:39:31.596Z,14.86
2022-11-08T14:42:02.576Z,14.82
2022-11-08T14:44:31.011Z,14.81
2022-11-08T14:46:59.321Z,14.77
2022-11-08T14:49:34.295Z,14.61
2022-11-08T14:52:17.313Z,14.43
2022-11-08T14:54:46.649Z,14.32
2022-11-08T14:57:32.919Z,14.14
2022-11-08T15:00:03.362Z,13.96
2022-11-08T15:02:31.160Z,13.80
2022-11-08T15:04:59.421Z,13.67
2022-11-08T15:07:27.758Z,13.58
2022-11-08T15:09:55.799Z,13.46
2022-11-08T15:12:25.015Z,13.42
2022-11-08T15:14:57.534Z,13.42
2022-11-08T15:17:33.626Z,13.40
2022-11-08T15:20:08.407Z,13.32
2022-11-08T15:22:37.222Z,13.31
2022-11-08T15:25:18.066Z,13.11
2022-11-08T15:27:48.310Z,12.93
2022-11-08T15:30:19.363Z,12.77
2022-11-08T15:32:47.354Z,12.76
2022-11-08T15:35:22.870Z,12.62
2022-11-08T15:37:52.759Z,12.56
2022-11-08T15:40:22.505Z,12.41
2022-11-08T15:42:51.625Z,12.33
2022-11-08T15:45:26.353Z,12.25
2022-11-08T15:47:55.361Z,12.18
2022-11-08T15:50:24.796Z,12.14
2022-11-08T15:52:54.054Z,12.01
2022-11-08T15:55:23.514Z,11.90
2022-11-08T15:57:51.561Z,11.86
2022-11-08T16:00:22.238Z,11.76
2022-11-08T16:02:51.427Z,11.71
2022-11-08T16:05:21.363Z,11.67
2022-11-08T16:07:49.395Z,11.60
2022-11-08T16:10:19.267Z,11.47
2022-11-08T16:12:48.539Z,11.45
2022-11-08T16:15:17.697Z,11.39
2022-11-08T16:17:45.482Z,11.38
2022-11-08T16:20:26.958Z,11.32
2022-11-08T16:22:54.957Z,11.18
2022-11-08T16:25:22.797Z,11.05
2022-11-08T16:27:54.030Z,11.01
2022-11-08T16:30:21.920Z,10.98
2022-11-08T16:32:49.746Z,10.87
2022-11-08T16:35:17.852Z,10.75
2022-11-08T16:37:47.165Z,10.67
2022-11-08T16:40:18.956Z,10.55
2022-11-08T16:42:47.668Z,10.43
2022-11-08T16:45:16.159Z,10.36
2022-11-08T16:47:45.404Z,10.32
2022-11-08T16:50:18.374Z,10.29
2022-11-08T16:52:47.475Z,10.28
2022-11-08T16:55:17.948Z,10.26
2022-11-08T16:57:46.669Z,10.24
2022-11-08T17:00:16.333Z,10.25
2022-11-08T17:02:46.427Z,10.25
2022-11-08T17:05:18.741Z,10.25
2022-11-08T17:07:48.025Z,10.20
2022-11-08T17:10:17.490Z,10.17
2022-11-08T17:12:45.263Z,10.14
2022-11-08T17:15:14.133Z,10.06
2022-11-08T17:17:41.943Z,9.88
2022-11-08T17:20:12.475Z,9.69
2022-11-08T17:22:40.376Z,9.64
2022-11-08T17:25:11.596Z,9.62
2022-11-08T17:27:39.632Z,9.59
2022-11-08T17:30:09.199Z,9.62
2022-11-08T17:32:37.276Z,9.63
2022-11-08T17:35:06.023Z,9.64
2022-11-08T17:37:34.158Z,9.64
2022-11-08T17:40:02.638Z,9.54
2022-11-08T17:42:34.232Z,9.38
2022-11-08T17:45:05.667Z,9.36
2022-11-08T17:47:33.296Z,9.30
2022-11-08T17:50:00.970Z,9.21
2022-11-08T17:52:28.720Z,9.18
2022-11-08T17:54:56.357Z,9.13
2022-11-08T17:57:24.115Z,9.13
2022-11-08T17:59:53.197Z,9.16
2022-11-08T18:02:21.073Z,9.16
2022-11-08T18:04:48.916Z,9.15
2022-11-08T18:07:16.792Z,9.14
2022-11-08T18:09:44.630Z,9.18
2022-11-08T18:12:12.296Z,9.25
2022-11-08T18:14:40.115Z,9.21
2022-11-08T18:17:09.211Z,9.23
2022-11-08T18:19:37.265Z,9.24
2022-11-08T18:22:05.608Z,9.30
2022-11-08T18:24:33.312Z,9.31
2022-11-08T18:27:01.082Z,9.30
2022-11-08T18:29:29.026Z,9.33
2022-11-08T18:31:56.688Z,9.34
2022-11-08T18:34:27.030Z,9.32
2022-11-08T18:36:54.937Z,9.32
2022-11-08T18:39:23.359Z,9.31
2022-11-08T18:41:51.272Z,9.31
2022-11-08T18:44:19.172Z,9.32
2022-11-08T18:46:46.926Z,9.31
2022-11-08T18:49:15.378Z,9.30
2022-11-08T18:51:44.452Z,9.20
2022-11-08T18:54:12.150Z,9.20
2022-11-08T18:56:40.164Z,9.20
2022-11-08T18:59:09.087Z,9.20
2022-11-08T19:01:37.443Z,9.18
2022-11-08T19:04:05.664Z,9.15
2022-11-08T19:06:33.767Z,9.14
2022-11-08T19:09:03.131Z,9.15
2022-11-08T19:11:31.015Z,9.06
2022-11-08T19:14:02.007Z,9.04
2022-11-08T19:16:29.751Z,8.96
2022-11-08T19:18:57.465Z,8.95
2022-11-08T19:21:27.011Z,8.95
2022-11-08T19:23:58.367Z,8.90
2022-11-08T19:26:28.601Z,8.86
2022-11-08T19:28:57.369Z,8.84
2022-11-08T19:31:25.978Z,8.77
2022-11-08T19:33:55.249Z,8.71
2022-11-08T19:36:24.594Z,8.69
2022-11-08T19:38:54.041Z,8.70
2022-11-08T19:41:23.730Z,8.67
2022-11-08T19:43:52.839Z,8.63
2022-11-08T19:46:23.579Z,8.60
2022-11-08T19:48:52.285Z,8.57
2022-11-08T19:51:21.856Z,8.56
2022-11-08T19:53:49.692Z,8.51
2022-11-08T19:56:19.238Z,8.53
2022-11-08T19:58:46.990Z,8.56
2022-11-08T20:01:17.953Z,8.56
2022-11-08T20:03:46.292Z,8.53
2022-11-08T20:06:18.400Z,8.53
2022-11-08T20:08:48.264Z,8.50
2022-11-08T20:11:17.404Z,8.46
2022-11-08T20:13:45.146Z,8.41
2022-11-08T20:16:13.726Z,8.39
2022-11-08T20:18:43.299Z,8.39
2022-11-08T20:21:12.708Z,8.35
2022-11-08T20:23:42.485Z,8.31
2022-11-08T20:26:16.299Z,8.21
2022-11-08T20:28:55.236Z,8.18
2022-11-08T20:31:23.854Z,8.12
2022-11-08T20:33:53.792Z,8.07
2022-11-08T20:36:22.903Z,7.96
2022-11-08T20:38:51.069Z,7.87
2022-11-08T20:41:19.111Z,7.86
2022-11-08T20:43:47.758Z,7.85
2022-11-08T20:46:16.686Z,7.82
2022-11-08T20:48:45.112Z,7.81
2022-11-08T20:51:15.473Z,7.79
2022-11-08T20:53:43.254Z,7.76
2022-11-08T20:56:12.400Z,7.72
2022-11-08T20:58:41.157Z,7.72
2022-11-08T21:01:10.109Z,7.68
2022-11-08T21:03:37.897Z,7.64
2022-11-08T21:06:07.556Z,7.59
2022-11-08T21:11:25.747Z,7.54
2022-11-08T21:13:53.447Z,7.49
2022-11-08T21:16:59.243Z,7.44
2022-11-08T21:19:08.867Z,7.41
2022-11-08T21:21:37.294Z,7.39
2022-11-08T21:24:06.875Z,7.33
2022-11-08T21:26:36.359Z,7.31
2022-11-08T21:29:04.343Z,7.26
2022-11-08T21:31:32.465Z,7.19
2022-11-08T21:34:00.168Z,7.16
2022-11-08T21:36:29.079Z,7.09
2022-11-08T21:38:56.862Z,7.07
2022-11-08T21:41:25.860Z,7.07
2022-11-08T21:43:54.647Z,7.07
2022-11-08T21:46:23.815Z,7.04
2022-11-08T21:48:54.667Z,7.00
2022-11-08T21:51:22.310Z,6.98
2022-11-08T21:53:54.708Z,6.98
2022-11-08T21:56:25.074Z,6.93
2022-11-08T21:58:53.199Z,6.88
2022-11-08T22:01:24.316Z,6.80
2022-11-08T22:03:54.764Z,6.73
2022-11-08T22:06:22.678Z,6.68
2022-11-08T22:08:50.355Z,6.65
2022-11-08T22:11:17.967Z,6.66
2022-11-08T22:13:46.997Z,6.70
2022-11-08T22:16:14.717Z,6.68
2022-11-08T22:19:03.728Z,6.66
2022-11-08T22:21:39.612Z,6.67
2022-11-08T22:24:08.635Z,6.67
2022-11-08T22:26:36.267Z,6.66
2022-11-08T22:29:05.508Z,6.65
2022-11-08T22:31:33.566Z,6.61
2022-11-08T22:34:01.307Z,6.58
2022-11-08T22:36:29.327Z,6.58
2022-11-08T22:38:57.128Z,6.54
2022-11-08T22:41:25.216Z,6.51
2022-11-08T22:43:53.148Z,6.46
2022-11-08T22:46:22.272Z,6.45
2022-11-08T22:48:50.436Z,6.43
2022-11-08T22:51:18.111Z,6.44
2022-11-08T22:53:45.730Z,6.39
2022-11-08T22:56:13.553Z,6.35
2022-11-08T22:58:41.203Z,6.30
2022-11-08T23:01:10.325Z,6.27
2022-11-08T23:03:39.432Z,6.26
2022-11-08T23:06:07.445Z,6.29
2022-11-08T23:08:35.060Z,6.25
2022-11-08T23:11:20.632Z,6.21
2022-11-08T23:14:06.061Z,6.18
2022-11-08T23:16:35.241Z,6.04
2022-11-08T23:19:23.422Z,5.99
2022-11-08T23:22:08.735Z,5.97
2022-11-08T23:24:36.416Z,5.93
2022-11-08T23:27:21.888Z,5.99
2022-11-08T23:30:16.077Z,5.99
2022-11-08T23:32:44.835Z,5.99
2022-11-08T23:35:14.433Z,5.94
2022-11-08T23:37:42.286Z,5.95
2022-11-08T23:40:28.772Z,5.89
2022-11-08T23:43:24.342Z,5.88
2022-11-08T23:45:52.220Z,5.81
2022-11-08T23:48:20.143Z,5.78
2022-11-08T23:50:50.677Z,5.79
2022-11-08T23:53:19.099Z,5.78
2022-11-08T23:55:47.201Z,5.76
2022-11-08T23:58:15.739Z,5.67
